Wetterdaten: Woche 27.02.17 - 05.03.17 (KW9)
Datum Zeit Temp. A. Feuchte A. Luftdruck Regen Wind Richtung Taupunkt Windchill Windben
27.02.2017 00:00 -1,0 C 85 % 1015,5 hPa 0,0 l/m 0,6 km/h (0 Bft) SW -3,3 C -1,0 C 1,5 km/h (1 Bft)
27.02.2017 01:00 -1,4 C 86 % 1015,3 hPa 0,0 l/m 0,4 km/h (0 Bft) SW -3,4 C -1,4 C 1,7 km/h (1 Bft)
27.02.2017 02:00 -1,3 C 86 % 1014,9 hPa 0,0 l/m 0,2 km/h (0 Bft) SW -3,3 C -1,3 C 1,5 km/h (1 Bft)
27.02.2017 03:00 -2,1 C 88 % 1014,2 hPa 0,0 l/m 0,1 km/h (0 Bft) SW -3,8 C -2,1 C 0,7 km/h (0 Bft)
27.02.2017 04:00 -2,9 C 91 % 1013,4 hPa 0,0 l/m 0,0 km/h (0 Bft) SW -4,1 C -2,9 C 0,4 km/h (0 Bft)
27.02.2017 05:00 -3,2 C 92 % 1012,9 hPa 0,0 l/m 0,0 km/h (0 Bft) SW -4,3 C -3,2 C 0,6 km/h (0 Bft)
27.02.2017 06:00 -3,4 C 92 % 1012,5 hPa 0,0 l/m 0,2 km/h (0 Bft) SO -4,4 C -3,4 C 1,2 km/h (1 Bft)
27.02.2017 07:00 -3,2 C 93 % 1012,0 hPa 0,0 l/m 0,5 km/h (0 Bft) SO -4,2 C -3,2 C 2,8 km/h (1 Bft)
27.02.2017 08:00 -0,3 C 90 % 1011,4 hPa 0,0 l/m 0,6 km/h (0 Bft) O -1,8 C -0,3 C 2,9 km/h (1 Bft)
27.02.2017 09:00 4,3 C 81 % 1010,6 hPa 0,0 l/m 3,6 km/h (1 Bft) N-NW 1,3 C 4,3 C 9,9 km/h (2 Bft)
27.02.2017 10:00 7,7 C 72 % 1009,6 hPa 0,0 l/m 5,1 km/h (1 Bft) NO 3,0 C 7,7 C 11,8 km/h (2 Bft)
27.02.2017 11:00 10,2 C 66 % 1008,4 hPa 0,0 l/m 7,3 km/h (2 Bft) NO 4,1 C 9,6 C 15,2 km/h (3 Bft)
27.02.2017 12:00 11,2 C 62 % 1007,5 hPa 0,0 l/m 7,8 km/h (2 Bft) NO 4,2 C 10,2 C 15,7 km/h (3 Bft)
27.02.2017 13:00 12,9 C 47 % 1005,9 hPa 0,0 l/m 10,0 km/h (2 Bft) NO 1,8 C 10,9 C 21,6 km/h (4 Bft)
27.02.2017 14:00 13,2 C 47 % 1004,5 hPa 0,0 l/m 6,8 km/h (2 Bft) O-NO 2,2 C 12,8 C 16,8 km/h (3 Bft)
27.02.2017 15:00 14,2 C 45 % 1003,4 hPa 0,0 l/m 6,3 km/h (2 Bft) O-NO 2,5 C 13,9 C 14,4 km/h (3 Bft)
27.02.2017 16:00 13,5 C 46 % 1002,7 hPa 0,0 l/m 8,0 km/h (2 Bft) O-NO 2,2 C 12,5 C 18,9 km/h (3 Bft)
27.02.2017 17:00 11,5 C 54 % 1001,9 hPa 0,0 l/m 3,3 km/h (1 Bft) O-NO 2,5 C 11,5 C 7,2 km/h (2 Bft)
27.02.2017 18:00 9,8 C 61 % 1001,5 hPa 0,0 l/m 0,7 km/h (0 Bft) NO 2,6 C 9,8 C 1,7 km/h (1 Bft)
27.02.2017 19:00 8,0 C 69 % 1000,4 hPa 0,0 l/m 1,3 km/h (1 Bft) NO 2,6 C 8,0 C 5,4 km/h (1 Bft)
27.02.2017 20:00 8,8 C 63 % 999,7 hPa 0,0 l/m 4,3 km/h (1 Bft) N-NO 2,1 C 8,7 C 9,5 km/h (2 Bft)
27.02.2017 21:00 9,2 C 60 % 999,1 hPa 0,0 l/m 3,6 km/h (1 Bft) NO 1,8 C 9,2 C 11,4 km/h (2 Bft)
27.02.2017 22:00 10,8 C 56 % 998,7 hPa 0,0 l/m 8,6 km/h (2 Bft) O 2,2 C 8,7 C 21,2 km/h (4 Bft)
27.02.2017 23:00 6,6 C 87 % 1000,0 hPa 2,0 l/m 10,0 km/h (2 Bft) NO 4,5 C 4,0 C 24,1 km/h (4 Bft)
28.02.2017 00:00 6,0 C 89 % 998,4 hPa 0,0 l/m 6,3 km/h (2 Bft) O 4,3 C 5,4 C 13,4 km/h (3 Bft)
28.02.2017 01:00 5,6 C 90 % 997,6 hPa 1,0 l/m 3,0 km/h (1 Bft) O 4,2 C 5,6 C 7,6 km/h (2 Bft)
28.02.2017 02:00 4,1 C 91 % 998,7 hPa 6,6 l/m 6,9 km/h (2 Bft) O-NO 2,7 C 3,0 C 17,6 km/h (3 Bft)
28.02.2017 03:00 0,8 C 94 % 999,1 hPa 0,8 l/m 2,5 km/h (1 Bft) O-NO -0,1 C 0,8 C 7,4 km/h (2 Bft)
28.02.2017 04:00 0,3 C 95 % 999,2 hPa 0,0 l/m 1,3 km/h (1 Bft) NO -0,4 C 0,3 C 4,4 km/h (1 Bft)
28.02.2017 05:00 0,4 C 95 % 999,3 hPa 0,0 l/m 2,9 km/h (1 Bft) O -0,3 C 0,4 C 6,4 km/h (2 Bft)
28.02.2017 06:00 0,6 C 93 % 999,4 hPa 0,3 l/m 1,9 km/h (1 Bft) O -0,3 C 0,6 C 4,9 km/h (1 Bft)
28.02.2017 07:00 0,6 C 94 % 999,9 hPa 0,3 l/m 2,1 km/h (1 Bft) O-NO -0,3 C 0,6 C 4,9 km/h (1 Bft)
28.02.2017 08:00 0,7 C 95 % 1000,0 hPa 0,5 l/m 0,2 km/h (0 Bft) O-NO -0,0 C 0,7 C 1,3 km/h (1 Bft)
28.02.2017 09:00 1,5 C 94 % 999,7 hPa 2,8 l/m 1,0 km/h (0 Bft) O-SO 0,6 C 1,5 C 3,3 km/h (1 Bft)
28.02.2017 10:00 2,4 C 91 % 998,4 hPa 3,3 l/m 2,5 km/h (1 Bft) N-NO 1,1 C 2,4 C 7,2 km/h (2 Bft)
28.02.2017 11:00 1,8 C 92 % 997,2 hPa 1,8 l/m 2,9 km/h (1 Bft) NO 0,6 C 1,8 C 7,6 km/h (2 Bft)
28.02.2017 12:00 2,0 C 93 % 995,8 hPa 1,8 l/m 2,7 km/h (1 Bft) O-NO 1,0 C 2,0 C 7,1 km/h (2 Bft)
28.02.2017 13:00 2,1 C 94 % 994,3 hPa 1,0 l/m 3,1 km/h (1 Bft) O 1,2 C 2,1 C 7,9 km/h (2 Bft)
28.02.2017 14:00 2,7 C 94 % 993,7 hPa 2,8 l/m 5,5 km/h (2 Bft) NO 1,8 C 2,2 C 13,8 km/h (3 Bft)
28.02.2017 15:00 2,0 C 94 % 994,3 hPa 6,1 l/m 8,2 km/h (2 Bft) NO 1,1 C 0,2 C 19,6 km/h (3 Bft)
28.02.2017 16:00 2,4 C 94 % 994,7 hPa 0,3 l/m 8,3 km/h (2 Bft) NO 1,5 C 0,6 C 21,4 km/h (4 Bft)
28.02.2017 17:00 2,8 C 92 % 995,9 hPa 0,0 l/m 7,3 km/h (2 Bft) N-NO 1,6 C 1,8 C 16,6 km/h (3 Bft)
28.02.2017 18:00 3,1 C 89 % 996,7 hPa 0,0 l/m 8,8 km/h (2 Bft) O-NO 1,6 C 1,0 C 19,8 km/h (4 Bft)
28.02.2017 19:00 2,8 C 89 % 998,5 hPa 0,5 l/m 6,3 km/h (2 Bft) O 1,2 C 2,3 C 17,8 km/h (3 Bft)
28.02.2017 20:00 1,6 C 93 % 999,5 hPa 1,8 l/m 4,2 km/h (1 Bft) O-NO 0,6 C 1,5 C 11,1 km/h (2 Bft)
28.02.2017 21:00 0,8 C 94 % 1001,4 hPa 0,0 l/m 6,9 km/h (2 Bft) O-NO -0,1 C 0,1 C 18,1 km/h (3 Bft)
28.02.2017 22:00 1,1 C 93 % 1002,3 hPa 1,3 l/m 7,1 km/h (2 Bft) O-NO 0,1 C 0,2 C 17,3 km/h (3 Bft)
28.02.2017 23:00 1,2 C 92 % 1003,0 hPa 0,0 l/m 9,0 km/h (2 Bft) O 0,1 C -1,2 C 18,6 km/h (3 Bft)
01.03.2017 00:00 1,2 C 92 % 1003,6 hPa 0,3 l/m 9,6 km/h (2 Bft) O-NO -0,0 C -1,6 C 19,3 km/h (3 Bft)
01.03.2017 01:00 1,3 C 88 % 1004,0 hPa 0,0 l/m 8,5 km/h (2 Bft) NO -0,4 C -0,7 C 21,3 km/h (4 Bft)
01.03.2017 02:00 1,3 C 90 % 1004,3 hPa 0,5 l/m 9,3 km/h (2 Bft) NO -0,2 C -1,4 C 21,8 km/h (4 Bft)
01.03.2017 03:00 1,6 C 90 % 1004,3 hPa 1,0 l/m 10,3 km/h (2 Bft) NO 0,1 C -1,9 C 23,7 km/h (4 Bft)
01.03.2017 04:00 1,5 C 91 % 1004,4 hPa 1,0 l/m 10,1 km/h (2 Bft) O-NO 0,2 C -1,6 C 23,7 km/h (4 Bft)
01.03.2017 05:00 1,6 C 91 % 1005,1 hPa 1,0 l/m 7,4 km/h (2 Bft) O-NO 0,3 C 0,2 C 17,3 km/h (3 Bft)
01.03.2017 06:00 1,7 C 90 % 1005,4 hPa 0,3 l/m 7,2 km/h (2 Bft) O-NO 0,2 C 0,3 C 16,9 km/h (3 Bft)
01.03.2017 07:00 1,9 C 89 % 1006,2 hPa 0,5 l/m 8,1 km/h (2 Bft) O 0,3 C 0,2 C 22,0 km/h (4 Bft)
01.03.2017 08:00 2,6 C 88 % 1007,3 hPa 1,3 l/m 9,9 km/h (2 Bft) NO 0,7 C -0,5 C 23,9 km/h (4 Bft)
01.03.2017 09:00 3,4 C 85 % 1007,9 hPa 1,3 l/m 10,3 km/h (2 Bft) O-NO 1,1 C 0,1 C 24,5 km/h (4 Bft)
01.03.2017 10:00 3,0 C 89 % 1009,0 hPa 0,8 l/m 9,6 km/h (2 Bft) O-NO 1,3 C 0,2 C 22,4 km/h (4 Bft)
01.03.2017 11:00 3,5 C 88 % 1009,4 hPa 0,0 l/m 7,3 km/h (2 Bft) O-NO 1,7 C 2,0 C 16,7 km/h (3 Bft)
01.03.2017 12:00 3,9 C 85 % 1009,3 hPa 0,0 l/m 7,3 km/h (2 Bft) O-NO 1,6 C 3,0 C 14,6 km/h (3 Bft)
01.03.2017 13:00 4,5 C 84 % 1009,1 hPa 0,0 l/m 6,4 km/h (2 Bft) O 2,1 C 3,9 C 16,5 km/h (3 Bft)
01.03.2017 14:00 4,8 C 85 % 1008,7 hPa 0,0 l/m 8,1 km/h (2 Bft) O-NO 2,5 C 3,3 C 20,1 km/h (4 Bft)
01.03.2017 15:00 4,5 C 89 % 1008,7 hPa 1,0 l/m 9,0 km/h (2 Bft) O-NO 2,8 C 2,3 C 21,7 km/h (4 Bft)
01.03.2017 16:00 4,3 C 90 % 1008,8 hPa 0,3 l/m 7,9 km/h (2 Bft) NO 2,8 C 3,0 C 19,2 km/h (3 Bft)
01.03.2017 17:00 3,9 C 90 % 1008,5 hPa 0,3 l/m 4,9 km/h (1 Bft) N-NO 2,5 C 3,4 C 9,9 km/h (2 Bft)
01.03.2017 18:00 3,8 C 91 % 1008,3 hPa 0,0 l/m 3,5 km/h (1 Bft) NO 2,4 C 3,8 C 8,1 km/h (2 Bft)
01.03.2017 19:00 3,9 C 91 % 1007,9 hPa 0,5 l/m 5,5 km/h (2 Bft) O-NO 2,6 C 3,6 C 13,2 km/h (3 Bft)
01.03.2017 20:00 5,1 C 89 % 1007,2 hPa 0,0 l/m 7,6 km/h (2 Bft) NO 3,4 C 4,1 C 19,4 km/h (3 Bft)
01.03.2017 21:00 5,6 C 92 % 1006,8 hPa 3,0 l/m 9,4 km/h (2 Bft) O-NO 4,4 C 3,2 C 23,3 km/h (4 Bft)
01.03.2017 22:00 6,1 C 93 % 1006,7 hPa 3,8 l/m 10,8 km/h (2 Bft) O-NO 5,1 C 2,8 C 27,2 km/h (5 Bft)
01.03.2017 23:00 6,4 C 93 % 1006,8 hPa 4,8 l/m 11,7 km/h (2 Bft) O 5,3 C 2,5 C 30,4 km/h (5 Bft)
02.03.2017 00:00 6,4 C 93 % 1006,7 hPa 3,0 l/m 11,6 km/h (2 Bft) O-NO 5,4 C 2,7 C 23,3 km/h (4 Bft)
02.03.2017 01:00 6,5 C 93 % 1006,9 hPa 4,3 l/m 12,0 km/h (2 Bft) O-NO 5,5 C 2,5 C 27,6 km/h (5 Bft)
02.03.2017 02:00 6,5 C 94 % 1007,1 hPa 2,8 l/m 10,8 km/h (2 Bft) O 5,6 C 3,3 C 25,5 km/h (4 Bft)
02.03.2017 03:00 6,6 C 94 % 1007,1 hPa 2,5 l/m 11,9 km/h (2 Bft) O-NO 5,7 C 2,7 C 26,9 km/h (4 Bft)
02.03.2017 04:00 6,5 C 94 % 1007,7 hPa 3,6 l/m 9,7 km/h (2 Bft) O-NO 5,6 C 3,9 C 22,8 km/h (4 Bft)
02.03.2017 05:00 4,9 C 91 % 1009,2 hPa 1,5 l/m 9,5 km/h (2 Bft) O 3,7 C 2,4 C 20,0 km/h (4 Bft)
02.03.2017 06:00 4,1 C 91 % 1009,8 hPa 0,0 l/m 8,8 km/h (2 Bft) O 2,8 C 2,0 C 19,8 km/h (4 Bft)
02.03.2017 07:00 3,3 C 89 % 1010,9 hPa 0,0 l/m 8,3 km/h (2 Bft) O 1,6 C 1,5 C 20,4 km/h (4 Bft)
02.03.2017 08:00 4,0 C 85 % 1012,5 hPa 0,0 l/m 8,4 km/h (2 Bft) O-NO 1,6 C 2,2 C 20,6 km/h (4 Bft)
02.03.2017 09:00 5,0 C 78 % 1013,4 hPa 0,0 l/m 8,9 km/h (2 Bft) O-NO 1,5 C 3,0 C 21,9 km/h (4 Bft)
02.03.2017 10:00 6,0 C 69 % 1014,2 hPa 0,0 l/m 9,0 km/h (2 Bft) O 0,8 C 3,9 C 22,5 km/h (4 Bft)
02.03.2017 11:00 7,0 C 59 % 1015,1 hPa 0,3 l/m 9,7 km/h (2 Bft) O-NO -0,4 C 4,7 C 24,6 km/h (4 Bft)
02.03.2017 12:00 7,6 C 56 % 1015,4 hPa 0,0 l/m 7,3 km/h (2 Bft) O-NO -0,7 C 6,7 C 16,7 km/h (3 Bft)
02.03.2017 13:00 7,9 C 53 % 1015,7 hPa 0,0 l/m 8,2 km/h (2 Bft) O -1,2 C 6,5 C 18,9 km/h (3 Bft)
02.03.2017 14:00 7,9 C 51 % 1016,0 hPa 0,0 l/m 6,8 km/h (2 Bft) O-NO -1,8 C 7,1 C 16,8 km/h (3 Bft)
02.03.2017 15:00 7,9 C 52 % 1016,5 hPa 0,0 l/m 6,4 km/h (2 Bft) O-NO -1,2 C 7,4 C 16,6 km/h (3 Bft)
02.03.2017 16:00 7,9 C 52 % 1017,0 hPa 0,0 l/m 4,2 km/h (1 Bft) O -1,2 C 7,9 C 11,7 km/h (2 Bft)
02.03.2017 17:00 6,6 C 55 % 1017,4 hPa 0,0 l/m 3,7 km/h (1 Bft) O-NO -1,8 C 6,5 C 9,8 km/h (2 Bft)
02.03.2017 18:00 5,3 C 60 % 1017,8 hPa 0,0 l/m 2,8 km/h (1 Bft) O-NO -1,8 C 5,3 C 5,7 km/h (2 Bft)
02.03.2017 19:00 3,4 C 71 % 1018,3 hPa 0,0 l/m 0,9 km/h (0 Bft) N-NW -1,4 C 3,4 C 3,2 km/h (1 Bft)
02.03.2017 20:00 2,4 C 77 % 1018,5 hPa 0,0 l/m 1,6 km/h (1 Bft) O-NO -1,3 C 2,4 C 4,8 km/h (1 Bft)
02.03.2017 21:00 1,4 C 79 % 1019,1 hPa 0,0 l/m 0,4 km/h (0 Bft) O-SO -1,8 C 1,4 C 1,9 km/h (1 Bft)
02.03.2017 22:00 0,5 C 83 % 1019,0 hPa 0,0 l/m 0,3 km/h (0 Bft) S -2,0 C 0,5 C 1,9 km/h (1 Bft)
02.03.2017 23:00 -0,5 C 88 % 1018,9 hPa 0,0 l/m 0,2 km/h (0 Bft) S -2,3 C -0,5 C 1,1 km/h (0 Bft)
03.03.2017 00:00 -1,2 C 90 % 1018,6 hPa 0,0 l/m 0,1 km/h (0 Bft) S -2,6 C -1,2 C 1,0 km/h (0 Bft)
03.03.2017 01:00 -1,6 C 92 % 1018,2 hPa 0,0 l/m 0,0 km/h (0 Bft) S -2,8 C -1,6 C 0,3 km/h (0 Bft)
03.03.2017 02:00 -2,3 C 92 % 1018,2 hPa 0,0 l/m 0,0 km/h (0 Bft) S -3,3 C -2,3 C 0,0 km/h (0 Bft)
03.03.2017 03:00 -3,0 C 93 % 1017,4 hPa 0,0 l/m 0,0 km/h (0 Bft) S -4,0 C -3,0 C 0,1 km/h (0 Bft)
03.03.2017 04:00 -3,3 C 94 % 1016,7 hPa 0,0 l/m 0,0 km/h (0 Bft) S -4,2 C -3,3 C 0,3 km/h (0 Bft)
03.03.2017 05:00 -3,4 C 95 % 1016,2 hPa 0,0 l/m 0,0 km/h (0 Bft) S -4,2 C -3,4 C 0,4 km/h (0 Bft)
03.03.2017 06:00 -3,6 C 94 % 1015,5 hPa 0,0 l/m 0,0 km/h (0 Bft) S -4,4 C -3,6 C 0,4 km/h (0 Bft)
03.03.2017 07:00 -3,7 C 95 % 1014,8 hPa 0,0 l/m 0,0 km/h (0 Bft) S -4,4 C -3,7 C 0,4 km/h (0 Bft)
03.03.2017 08:00 -2,5 C 95 % 1014,4 hPa 0,0 l/m 0,2 km/h (0 Bft) S -3,1 C -2,5 C 1,3 km/h (1 Bft)
03.03.2017 09:00 -0,3 C 93 % 1013,8 hPa 0,0 l/m 0,5 km/h (0 Bft) S -1,3 C -0,3 C 1,9 km/h (1 Bft)
03.03.2017 10:00 3,9 C 75 % 1012,9 hPa 0,0 l/m 1,8 km/h (1 Bft) W-SW -0,2 C 3,9 C 5,8 km/h (2 Bft)
03.03.2017 11:00 8,0 C 54 % 1012,0 hPa 0,0 l/m 3,9 km/h (1 Bft) NO -0,7 C 7,9 C 10,2 km/h (2 Bft)
03.03.2017 12:00 9,9 C 51 % 1011,1 hPa 0,0 l/m 4,4 km/h (1 Bft) NO 0,3 C 9,8 C 7,8 km/h (2 Bft)
03.03.2017 13:00 11,3 C 52 % 1009,8 hPa 0,0 l/m 3,8 km/h (1 Bft) NO 1,7 C 11,3 C 6,8 km/h (2 Bft)
03.03.2017 14:00 13,5 C 49 % 1008,6 hPa 0,0 l/m 3,9 km/h (1 Bft) NO 3,1 C 13,4 C 7,0 km/h (2 Bft)
03.03.2017 15:00 13,7 C 44 % 1007,3 hPa 0,0 l/m 5,3 km/h (1 Bft) O-NO 1,5 C 13,5 C 9,9 km/h (2 Bft)
03.03.2017 16:00 12,5 C 47 % 1006,6 hPa 0,0 l/m 2,6 km/h (1 Bft) O 1,6 C 12,5 C 4,7 km/h (1 Bft)
03.03.2017 17:00 10,6 C 62 % 1005,8 hPa 0,0 l/m 0,1 km/h (0 Bft) N 3,5 C 10,6 C 0,2 km/h (0 Bft)
03.03.2017 18:00 7,6 C 72 % 1005,3 hPa 0,0 l/m 0,1 km/h (0 Bft) O 2,8 C 7,6 C 0,7 km/h (0 Bft)
03.03.2017 19:00 4,8 C 82 % 1004,7 hPa 0,0 l/m 0,2 km/h (0 Bft) O 1,9 C 4,8 C 1,3 km/h (1 Bft)
03.03.2017 20:00 3,7 C 85 % 1004,3 hPa 0,0 l/m 0,6 km/h (0 Bft) O-NO 1,4 C 3,7 C 2,5 km/h (1 Bft)
03.03.2017 21:00 2,6 C 87 % 1003,7 hPa 0,0 l/m 0,2 km/h (0 Bft) O-NO 0,6 C 2,6 C 1,2 km/h (1 Bft)
03.03.2017 22:00 1,7 C 89 % 1003,3 hPa 0,0 l/m 0,2 km/h (0 Bft) O-NO 0,1 C 1,7 C 1,5 km/h (1 Bft)
03.03.2017 23:00 0,9 C 90 % 1002,8 hPa 0,0 l/m 0,0 km/h (0 Bft) O-NO -0,5 C 0,9 C 0,3 km/h (0 Bft)
04.03.2017 00:00 0,4 C 92 % 1002,5 hPa 0,0 l/m 0,0 km/h (0 Bft) O-NO -0,8 C 0,4 C 0,2 km/h (0 Bft)
04.03.2017 01:00 -0,0 C 92 % 1002,0 hPa 0,0 l/m 0,0 km/h (0 Bft) O-NO -1,1 C -0,0 C 0,8 km/h (0 Bft)
04.03.2017 02:00 -0,6 C 93 % 1001,2 hPa 0,0 l/m 0,0 km/h (0 Bft) O-NO -1,5 C -0,6 C 0,1 km/h (0 Bft)
04.03.2017 03:00 -0,9 C 94 % 1000,4 hPa 0,0 l/m 0,2 km/h (0 Bft) O-NO -1,8 C -0,9 C 1,2 km/h (1 Bft)
04.03.2017 04:00 -1,4 C 94 % 999,8 hPa 0,0 l/m 0,1 km/h (0 Bft) O-NO -2,2 C -1,4 C 0,8 km/h (0 Bft)
04.03.2017 05:00 -1,9 C 94 % 999,1 hPa 0,0 l/m 0,0 km/h (0 Bft) O-NO -2,7 C -1,9 C 0,3 km/h (0 Bft)
04.03.2017 06:00 -2,2 C 95 % 998,8 hPa 0,0 l/m 0,0 km/h (0 Bft) O-NO -2,9 C -2,2 C 0,0 km/h (0 Bft)
04.03.2017 07:00 -2,3 C 95 % 998,2 hPa 0,0 l/m 0,0 km/h (0 Bft) O-NO -2,9 C -2,3 C 0,3 km/h (0 Bft)
04.03.2017 08:00 -0,3 C 94 % 997,1 hPa 0,0 l/m 0,2 km/h (0 Bft) O-NO -1,2 C -0,3 C 1,1 km/h (0 Bft)
04.03.2017 09:00 3,3 C 87 % 995,7 hPa 0,0 l/m 1,1 km/h (0 Bft) O-NO 1,3 C 3,3 C 3,2 km/h (1 Bft)
04.03.2017 10:00 7,9 C 74 % 994,6 hPa 0,0 l/m 1,2 km/h (1 Bft) O-NO 3,5 C 7,9 C 3,2 km/h (1 Bft)
04.03.2017 11:00 10,5 C 63 % 993,3 hPa 0,0 l/m 2,2 km/h (1 Bft) W-NW 3,7 C 10,5 C 5,5 km/h (2 Bft)
04.03.2017 12:00 11,6 C 58 % 992,4 hPa 0,0 l/m 3,4 km/h (1 Bft) S-SW 3,7 C 11,6 C 7,1 km/h (2 Bft)
04.03.2017 13:00 13,1 C 51 % 991,6 hPa 0,0 l/m 1,8 km/h (1 Bft) W-SW 3,2 C 13,1 C 4,9 km/h (1 Bft)
04.03.2017 14:00 14,7 C 48 % 990,9 hPa 0,0 l/m 1,6 km/h (1 Bft) W 3,8 C 14,7 C 5,2 km/h (1 Bft)
04.03.2017 15:00 15,2 C 45 % 991,2 hPa 0,0 l/m 4,7 km/h (1 Bft) O-NO 3,2 C 14,5 C 12,1 km/h (2 Bft)
04.03.2017 16:00 11,2 C 59 % 993,2 hPa 0,0 l/m 8,2 km/h (2 Bft) O 3,4 C 9,9 C 20,4 km/h (4 Bft)
04.03.2017 17:00 8,8 C 69 % 994,5 hPa 0,0 l/m 5,9 km/h (2 Bft) O 3,4 C 8,2 C 14,6 km/h (3 Bft)
04.03.2017 18:00 7,6 C 73 % 995,2 hPa 0,0 l/m 2,9 km/h (1 Bft) O 3,1 C 7,4 C 7,6 km/h (2 Bft)
04.03.2017 19:00 7,0 C 75 % 996,9 hPa 0,3 l/m 3,0 km/h (1 Bft) O-NO 2,9 C 7,0 C 8,8 km/h (2 Bft)
04.03.2017 20:00 5,0 C 89 % 998,2 hPa 1,8 l/m 5,2 km/h (1 Bft) O 3,3 C 4,6 C 13,9 km/h (3 Bft)
04.03.2017 21:00 4,6 C 90 % 999,1 hPa 0,3 l/m 8,5 km/h (2 Bft) O-NO 3,1 C 2,5 C 17,6 km/h (3 Bft)
04.03.2017 22:00 4,3 C 86 % 999,8 hPa 0,0 l/m 13,0 km/h (3 Bft) NO 2,2 C -0,6 C 28,8 km/h (5 Bft)
04.03.2017 23:00 4,3 C 84 % 1000,4 hPa 0,0 l/m 12,4 km/h (2 Bft) O-SO 1,8 C -0,2 C 28,2 km/h (5 Bft)
05.03.2017 00:00 4,3 C 83 % 1001,4 hPa 0,0 l/m 11,5 km/h (2 Bft) NO 1,7 C 0,5 C 23,8 km/h (4 Bft)
05.03.2017 01:00 4,2 C 83 % 1002,7 hPa 0,0 l/m 8,2 km/h (2 Bft) NO 1,6 C 2,7 C 18,9 km/h (3 Bft)
05.03.2017 02:00 4,2 C 82 % 1003,1 hPa 0,0 l/m 7,0 km/h (2 Bft) O 1,4 C 3,5 C 18,6 km/h (3 Bft)
05.03.2017 03:00 4,1 C 81 % 1003,5 hPa 0,0 l/m 5,0 km/h (1 Bft) NO 1,2 C 3,9 C 12,8 km/h (3 Bft)
05.03.2017 04:00 4,0 C 81 % 1004,0 hPa 0,0 l/m 4,8 km/h (1 Bft) N-NO 1,1 C 4,0 C 13,4 km/h (3 Bft)
05.03.2017 05:00 3,9 C 83 % 1004,8 hPa 0,0 l/m 4,2 km/h (1 Bft) NO 1,3 C 3,8 C 10,3 km/h (2 Bft)
05.03.2017 06:00 3,8 C 83 % 1005,3 hPa 0,0 l/m 5,0 km/h (1 Bft) O-NO 1,2 C 3,6 C 11,7 km/h (2 Bft)
05.03.2017 07:00 3,6 C 84 % 1005,9 hPa 0,0 l/m 4,0 km/h (1 Bft) O-NO 1,2 C 3,6 C 10,2 km/h (2 Bft)
05.03.2017 08:00 4,1 C 81 % 1006,4 hPa 0,0 l/m 6,1 km/h (2 Bft) O-NO 1,2 C 3,9 C 14,5 km/h (3 Bft)
05.03.2017 09:00 4,6 C 79 % 1006,2 hPa 0,0 l/m 6,3 km/h (2 Bft) NO 1,2 C 4,4 C 15,3 km/h (3 Bft)
05.03.2017 10:00 5,8 C 74 % 1005,8 hPa 0,0 l/m 5,9 km/h (2 Bft) O-NO 1,5 C 5,6 C 14,2 km/h (3 Bft)
05.03.2017 11:00 6,5 C 69 % 1005,1 hPa 0,0 l/m 6,5 km/h (2 Bft) N-NO 1,2 C 6,0 C 15,1 km/h (3 Bft)
05.03.2017 12:00 6,9 C 67 % 1004,5 hPa 0,0 l/m 7,2 km/h (2 Bft) NO 1,3 C 6,1 C 13,8 km/h (3 Bft)
05.03.2017 13:00 8,0 C 60 % 1003,0 hPa 0,0 l/m 5,9 km/h (2 Bft) NO 0,6 C 7,8 C 14,2 km/h (3 Bft)
05.03.2017 14:00 8,9 C 53 % 1002,1 hPa 0,0 l/m 5,5 km/h (2 Bft) O-NO -0,1 C 8,8 C 13,3 km/h (3 Bft)
05.03.2017 15:00 8,6 C 54 % 1001,7 hPa 0,0 l/m 4,8 km/h (1 Bft) O -0,2 C 8,6 C 11,1 km/h (2 Bft)
05.03.2017 16:00 6,7 C 69 % 1001,7 hPa 0,5 l/m 7,6 km/h (2 Bft) O-NO 1,1 C 5,6 C 17,6 km/h (3 Bft)
05.03.2017 17:00 3,4 C 91 % 1002,1 hPa 3,0 l/m 6,1 km/h (2 Bft) NO 2,0 C 3,0 C 12,8 km/h (3 Bft)
05.03.2017 18:00 2,9 C 92 % 1002,1 hPa 0,3 l/m 5,5 km/h (2 Bft) O-NO 1,7 C 2,8 C 11,9 km/h (2 Bft)
05.03.2017 19:00 3,7 C 90 % 1002,0 hPa 0,0 l/m 8,8 km/h (2 Bft) O-NO 2,3 C 1,6 C 20,1 km/h (4 Bft)
05.03.2017 20:00 4,0 C 89 % 1001,7 hPa 0,8 l/m 8,8 km/h (2 Bft) O-NO 2,3 C 2,0 C 21,3 km/h (4 Bft)
05.03.2017 21:00 3,5 C 90 % 1002,0 hPa 2,0 l/m 9,2 km/h (2 Bft) N-NO 2,0 C 1,1 C 22,0 km/h (4 Bft)
05.03.2017 22:00 3,2 C 91 % 1002,3 hPa 0,8 l/m 9,0 km/h (2 Bft) O-NO 2,0 C 0,9 C 21,7 km/h (4 Bft)
05.03.2017 23:00 2,5 C 91 % 1003,6 hPa 0,8 l/m 6,1 km/h (2 Bft) O 1,2 C 1,8 C 16,0 km/h (3 Bft)
Min-Datum _ 03.03.17 03.03.17 04.03.17 - 04.03.17 - 03.03.17 01.03.17 04.03.17
_ Min-Zeit 07:10 15:37 15:05 - 08:15 - 07:10 00:13 08:15
Minimum _ -3,9 C 40 % 990,6 hPa - 0,0 km/h (0 Bft) - -4,7 C -6,1 C 0,0 km/h (0 Bft)
Max-Datum _ 04.03.17 04.03.17 02.03.17 28.02.17 05.03.17 - 02.03.17 04.03.17 02.03.17
_ Max-Zeit 15:00 08:00 22:00 02:00 00:10 - 03:30 15:00 11:05
Maximum _ 15,9 C 96 % 1019,3 hPa 6,6 l/m 17,7 km/h
NO (3 Bft)
- 5,8 C 15,9 C 41,8 km/h
O-NO (6 Bft)
Durchschnitt _ 4,2 C 81 % 1005,4 hPa #84,8 l/m 4,9 km/h (1 Bft) O-NO 0,8 C 3,4 C 11,8 km/h (2 Bft)